createdAt,value
2017-09-01T00:00:25.691Z,25.12
2017-09-01T00:01:36.042Z,25
2017-09-01T00:02:46.404Z,25.12
2017-09-01T00:03:56.744Z,25.01
2017-09-01T00:05:06.772Z,25.19
2017-09-01T00:06:17.167Z,25.08
2017-09-01T00:07:27.520Z,25.08
2017-09-01T00:08:37.870Z,25.02
2017-09-01T00:09:48.203Z,24.94
2017-09-01T00:10:58.555Z,24.96
2017-09-01T00:12:08.898Z,24.96
2017-09-01T00:13:19.237Z,24.93
2017-09-01T00:14:29.578Z,24.94
2017-09-01T00:15:39.924Z,24.82
2017-09-01T00:16:49.971Z,24.78
2017-09-01T00:18:00.051Z,24.75
2017-09-01T00:19:10.394Z,24.85
2017-09-01T00:20:20.741Z,24.7
2017-09-01T00:21:31.088Z,24.74
2017-09-01T00:22:41.106Z,24.66
2017-09-01T00:23:51.505Z,24.59
2017-09-01T00:25:01.864Z,24.67
2017-09-01T00:26:11.888Z,24.66
2017-09-01T00:27:22.222Z,24.55
2017-09-01T00:28:32.261Z,24.63
2017-09-01T00:29:42.609Z,24.56
2017-09-01T00:30:52.964Z,24.52
2017-09-01T00:32:03.320Z,24.52
2017-09-01T00:33:13.670Z,24.46
2017-09-01T00:34:24.027Z,24.45
2017-09-01T00:35:34.104Z,24.39
2017-09-01T00:36:43.506Z,24.33
2017-09-01T00:37:53.854Z,24.34
2017-09-01T00:39:03.884Z,24.37
2017-09-01T00:40:13.910Z,24.34
2017-09-01T00:41:24.316Z,24.34
2017-09-01T00:42:34.670Z,24.37
2017-09-01T00:43:45.025Z,24.32
2017-09-01T00:44:55.357Z,24.32
2017-09-01T00:46:05.697Z,24.34
2017-09-01T00:47:15.721Z,24.3
2017-09-01T00:48:25.740Z,24.39
2017-09-01T00:49:35.821Z,24.37
2017-09-01T00:50:46.156Z,24.32
2017-09-01T00:51:56.498Z,24.37
2017-09-01T00:53:06.862Z,24.33
2017-09-01T00:54:16.892Z,24.36
2017-09-01T00:55:26.286Z,24.33
2017-09-01T00:56:36.627Z,24.27
2017-09-01T00:57:46.972Z,24.34
2017-09-01T00:58:57.299Z,24.27
2017-09-01T01:00:07.665Z,24.33
2017-09-01T01:01:18.016Z,24.34
2017-09-01T01:02:28.384Z,24.29
2017-09-01T01:03:38.410Z,24.33
2017-09-01T01:04:48.799Z,24.32
2017-09-01T01:05:58.823Z,24.3
2017-09-01T01:07:09.207Z,24.29
2017-09-01T01:08:19.545Z,24.26
2017-09-01T01:09:29.902Z,24.33
2017-09-01T01:10:40.297Z,24.32
2017-09-01T01:11:50.654Z,24.19
2017-09-01T01:13:00.673Z,24.29
2017-09-01T01:14:11.001Z,24.18
2017-09-01T01:15:21.012Z,24.15
2017-09-01T01:16:31.360Z,24.14
2017-09-01T01:17:41.709Z,24.18
2017-09-01T01:18:52.056Z,24.15
2017-09-01T01:20:02.422Z,24.17
2017-09-01T01:21:12.766Z,24.14
2017-09-01T01:22:24.614Z,24.15
2017-09-01T01:23:34.949Z,24.08
2017-09-01T01:24:47.478Z,24.03
2017-09-01T01:25:57.502Z,24.02
2017-09-01T01:27:07.548Z,24.09
2017-09-01T01:28:17.892Z,24.07
2017-09-01T01:29:28.236Z,24.02
2017-09-01T01:30:38.597Z,23.99
2017-09-01T01:31:48.930Z,23.96
2017-09-01T01:32:59.286Z,23.94
2017-09-01T01:34:09.378Z,23.97
2017-09-01T01:35:21.124Z,23.85
2017-09-01T01:36:31.456Z,23.89
2017-09-01T01:37:41.506Z,23.87
2017-09-01T01:38:51.848Z,23.87
2017-09-01T01:40:02.188Z,23.87
2017-09-01T01:41:12.526Z,23.85
2017-09-01T01:42:22.889Z,23.87
2017-09-01T01:43:32.913Z,23.78
2017-09-01T01:44:43.263Z,23.82
2017-09-01T01:45:53.660Z,23.78
2017-09-01T01:47:04.004Z,23.82
2017-09-01T01:48:14.347Z,23.78
2017-09-01T01:49:24.382Z,23.82
2017-09-01T01:50:34.725Z,23.75
2017-09-01T01:51:44.749Z,23.78
2017-09-01T01:52:55.112Z,23.78
2017-09-01T01:54:05.475Z,23.77
2017-09-01T01:55:15.831Z,23.82
2017-09-01T01:56:25.850Z,23.82
2017-09-01T01:57:35.559Z,23.85
2017-09-01T01:58:45.911Z,23.79
2017-09-01T01:59:56.253Z,23.85
2017-09-01T02:01:06.259Z,23.89
2017-09-01T02:02:16.614Z,23.81
2017-09-01T02:03:27.007Z,23.85
2017-09-01T02:04:37.041Z,23.85
2017-09-01T02:05:47.381Z,23.9
2017-09-01T02:06:57.101Z,23.87
2017-09-01T02:08:07.121Z,23.89
2017-09-01T02:09:17.521Z,23.89
2017-09-01T02:10:27.547Z,23.85
2017-09-01T02:11:37.895Z,23.85
2017-09-01T02:12:47.941Z,23.9
2017-09-01T02:13:57.972Z,23.96
2017-09-01T02:15:08.299Z,23.99
2017-09-01T02:16:18.341Z,23.96
2017-09-01T02:17:28.680Z,23.97
2017-09-01T02:18:39.022Z,24.03
2017-09-01T02:19:49.362Z,23.97
2017-09-01T02:20:59.756Z,23.89
2017-09-01T02:22:09.770Z,23.99
2017-09-01T02:23:20.119Z,23.87
2017-09-01T02:24:30.473Z,23.93
2017-09-01T02:25:40.805Z,23.87
2017-09-01T02:26:51.156Z,23.97
2017-09-01T02:28:01.178Z,24.03
2017-09-01T02:29:11.551Z,24.04
2017-09-01T02:30:21.589Z,24.07
2017-09-01T02:31:31.936Z,24.04
2017-09-01T02:32:41.986Z,23.94
2017-09-01T02:33:52.323Z,23.94
2017-09-01T02:35:02.671Z,24.03
2017-09-01T02:36:12.708Z,23.93
2017-09-01T02:37:23.050Z,23.99
2017-09-01T02:38:33.400Z,23.85
2017-09-01T02:39:43.432Z,23.89
2017-09-01T02:40:53.141Z,23.87
2017-09-01T02:42:03.497Z,23.85
2017-09-01T02:43:13.831Z,23.85
2017-09-01T02:44:24.230Z,23.84
2017-09-01T02:45:34.575Z,23.87
2017-09-01T02:46:45.222Z,23.85
2017-09-01T02:47:55.251Z,23.87
2017-09-01T02:49:05.590Z,23.85
2017-09-01T02:50:15.934Z,23.85
2017-09-01T02:51:26.297Z,23.87
2017-09-01T02:52:36.656Z,23.81
2017-09-01T02:53:47.004Z,23.79
2017-09-01T02:54:57.339Z,23.84
2017-09-01T02:56:07.664Z,23.81
2017-09-01T02:57:17.706Z,23.78
2017-09-01T02:58:28.049Z,23.77
2017-09-01T02:59:37.459Z,23.71
2017-09-01T03:00:47.809Z,23.75
2017-09-01T03:01:58.150Z,23.82
2017-09-01T03:33:41.383Z,21.67
2017-09-01T03:34:51.087Z,21.61
2017-09-01T03:36:01.099Z,21.58
2017-09-01T03:37:11.414Z,21.7
2017-09-01T03:38:21.431Z,21.77
2017-09-01T03:39:31.512Z,21.8
2017-09-01T03:40:41.537Z,21.92
2017-09-01T03:41:51.885Z,22.09
2017-09-01T03:43:02.223Z,22.14
2017-09-01T03:44:12.246Z,22.24
2017-09-01T03:45:22.632Z,22.36
2017-09-01T03:46:32.959Z,22.44
2017-09-01T03:47:42.992Z,22.57
2017-09-01T03:48:53.331Z,22.69
2017-09-01T03:50:03.369Z,22.75
2017-09-01T03:51:13.718Z,22.81
2017-09-01T03:52:23.742Z,22.86
2017-09-01T03:53:33.811Z,22.92
2017-09-01T03:54:44.176Z,23.01
2017-09-01T03:55:54.222Z,23.03
2017-09-01T03:57:04.248Z,23.12
2017-09-01T03:58:14.585Z,23.09
2017-09-01T03:59:24.928Z,23.12
2017-09-01T04:00:35.267Z,23.19
2017-09-01T04:01:45.638Z,23.25
2017-09-01T04:02:56.035Z,23.26
2017-09-01T04:04:06.380Z,23.32
2017-09-01T04:05:16.731Z,23.38
2017-09-01T04:06:26.766Z,23.37
2017-09-01T04:07:37.105Z,23.42
2017-09-01T04:08:47.490Z,23.48
2017-09-01T04:09:57.850Z,23.56
2017-09-01T04:11:08.192Z,23.44
2017-09-01T04:12:18.531Z,23.45
2017-09-01T04:13:28.883Z,23.56
2017-09-01T04:14:39.311Z,23.55
2017-09-01T04:15:49.657Z,23.48
2017-09-01T04:16:59.691Z,23.53
2017-09-01T04:18:09.405Z,23.53
2017-09-01T04:19:19.753Z,23.56
2017-09-01T04:20:30.111Z,23.5
2017-09-01T04:21:40.142Z,23.56
2017-09-01T04:22:50.507Z,23.57
2017-09-01T04:24:00.849Z,23.62
2017-09-01T04:25:11.175Z,23.57
2017-09-01T04:26:21.515Z,23.66
2017-09-01T04:27:31.525Z,23.66
2017-09-01T04:28:41.920Z,23.55
2017-09-01T04:29:52.288Z,23.59
2017-09-01T04:31:02.311Z,23.56
2017-09-01T04:32:12.697Z,23.6
2017-09-01T04:33:24.869Z,23.63
2017-09-01T04:34:35.195Z,23.66
2017-09-01T04:35:45.558Z,23.64
2017-09-01T04:36:55.900Z,23.66
2017-09-01T04:38:05.950Z,23.66
2017-09-01T04:39:16.299Z,23.66
2017-09-01T04:40:26.641Z,23.67
2017-09-01T04:41:36.979Z,23.66
2017-09-01T04:42:47.336Z,23.6
2017-09-01T04:43:57.082Z,23.7
2017-09-01T04:45:07.427Z,23.71
2017-09-01T04:46:17.772Z,23.63
2017-09-01T04:47:27.789Z,23.71
2017-09-01T04:48:37.823Z,23.71
2017-09-01T04:49:47.534Z,23.74
2017-09-01T04:50:57.877Z,23.78
2017-09-01T04:52:07.922Z,23.71
2017-09-01T04:53:18.319Z,23.75
2017-09-01T04:54:28.347Z,23.77
2017-09-01T04:55:38.372Z,23.7
2017-09-01T04:56:49.360Z,23.72
2017-09-01T04:57:59.700Z,23.74
2017-09-01T04:59:10.047Z,23.74
2017-09-01T05:00:20.317Z,23.71
2017-09-01T05:01:30.656Z,23.66
2017-09-01T05:02:40.365Z,23.71
2017-09-01T05:03:50.705Z,23.74
2017-09-01T05:05:01.059Z,23.74
2017-09-01T05:06:11.412Z,23.75
2017-09-01T05:07:21.795Z,23.81
2017-09-01T05:08:32.137Z,23.82
2017-09-01T05:09:42.170Z,23.82
2017-09-01T05:10:52.525Z,23.85
2017-09-01T05:12:02.543Z,23.81
2017-09-01T05:13:12.931Z,23.85
2017-09-01T05:14:22.957Z,23.82
2017-09-01T05:15:34.323Z,23.93
2017-09-01T05:16:44.370Z,23.92
2017-09-01T05:17:54.076Z,23.94
2017-09-01T05:19:04.097Z,24.02
2017-09-01T05:20:14.111Z,24.08
2017-09-01T05:21:24.140Z,24.11
2017-09-01T05:22:34.485Z,24.19
2017-09-01T05:23:44.841Z,24.4
2017-09-01T05:24:54.944Z,24.42
2017-09-01T05:26:05.284Z,24.46
2017-09-01T05:27:15.634Z,24.58
2017-09-01T05:28:25.672Z,24.71
2017-09-01T05:29:36.019Z,24.71
2017-09-01T05:30:46.410Z,24.93
2017-09-01T05:31:57.112Z,24.86
2017-09-01T05:33:08.699Z,24.83
2017-09-01T05:34:18.726Z,24.97
2017-09-01T05:35:29.078Z,25.07
2017-09-01T05:36:39.454Z,25
2017-09-01T05:37:49.816Z,25.02
2017-09-01T05:39:00.304Z,25.07
2017-09-01T05:40:11.971Z,25.04
2017-09-01T05:41:22.323Z,25.05
2017-09-01T05:42:32.661Z,24.92
2017-09-01T05:43:42.996Z,24.96
2017-09-01T05:44:53.333Z,25.01
2017-09-01T05:46:03.360Z,25.01
2017-09-01T05:47:13.693Z,25.07
2017-09-01T05:48:24.042Z,25.08
2017-09-01T05:49:34.078Z,25.14
2017-09-01T05:50:44.443Z,25.26
2017-09-01T05:51:54.798Z,25.27
2017-09-01T05:53:05.141Z,25.38
2017-09-01T05:54:15.547Z,25.45
2017-09-01T05:55:26.072Z,25.56
2017-09-01T05:56:36.425Z,25.59
2017-09-01T05:57:46.768Z,25.63
2017-09-01T05:58:57.115Z,25.62
2017-09-01T06:00:06.892Z,25.66
2017-09-01T06:01:17.230Z,25.64
2017-09-01T06:02:27.576Z,25.63
2017-09-01T06:03:37.932Z,25.74
2017-09-01T06:04:47.658Z,25.63
2017-09-01T06:05:57.750Z,25.63
2017-09-01T06:07:08.091Z,25.71
2017-09-01T06:08:18.117Z,25.71
2017-09-01T06:09:28.145Z,25.69
2017-09-01T06:10:38.480Z,25.75
2017-09-01T06:11:48.871Z,25.81
2017-09-01T06:12:59.209Z,25.76
2017-09-01T06:14:09.566Z,25.86
2017-09-01T06:15:19.604Z,25.85
2017-09-01T06:16:29.962Z,25.96
2017-09-01T06:17:40.337Z,26.03
2017-09-01T06:18:49.736Z,26.2
2017-09-01T06:20:00.087Z,26.34
2017-09-01T06:21:10.103Z,26.38
2017-09-01T06:22:20.120Z,26.39
2017-09-01T06:23:30.463Z,26.39
2017-09-01T06:24:40.797Z,26.42
2017-09-01T06:25:52.829Z,26.26
2017-09-01T06:27:02.541Z,26.41
2017-09-01T06:28:12.883Z,26.34
2017-09-01T06:29:23.275Z,26.32
2017-09-01T06:30:33.656Z,26.31
2017-09-01T06:31:44.003Z,26.27
2017-09-01T06:32:54.059Z,26.26
2017-09-01T06:34:04.403Z,26.23
2017-09-01T06:35:14.734Z,26.22
2017-09-01T06:36:25.079Z,26.16
2017-09-01T06:37:35.094Z,26.06
2017-09-01T06:38:45.440Z,26.15
2017-09-01T06:39:55.465Z,26.19
2017-09-01T06:41:05.479Z,26.2
2017-09-01T06:42:15.817Z,26.15
2017-09-01T06:43:25.861Z,26.12
2017-09-01T06:44:35.893Z,26.12
2017-09-01T06:45:45.909Z,26.19
2017-09-01T06:46:56.300Z,26.3
2017-09-01T06:48:06.655Z,26.39
2017-09-01T06:49:17.061Z,26.45
2017-09-01T06:50:27.419Z,26.44
2017-09-01T06:51:37.758Z,26.56
2017-09-01T06:52:48.170Z,26.6
2017-09-01T06:53:58.203Z,26.68
2017-09-01T06:55:08.216Z,26.69
2017-09-01T06:56:18.919Z,26.84
2017-09-01T06:57:29.311Z,26.89
2017-09-01T06:58:39.668Z,26.94
2017-09-01T06:59:50.015Z,26.96
2017-09-01T07:01:00.393Z,26.94
2017-09-01T07:02:10.422Z,26.93
2017-09-01T07:03:20.463Z,27.11
2017-09-01T07:04:30.489Z,27.15
2017-09-01T07:05:40.509Z,27.26
2017-09-01T07:06:50.536Z,27.26
2017-09-01T07:08:00.558Z,27.23
2017-09-01T07:09:10.911Z,27.16
2017-09-01T07:10:21.315Z,27.13
2017-09-01T07:11:31.687Z,27.12
2017-09-01T07:12:42.028Z,27.06
2017-09-01T07:13:52.370Z,26.96
2017-09-01T07:15:02.731Z,26.97
2017-09-01T07:16:12.485Z,26.78
2017-09-01T07:17:22.830Z,26.61
2017-09-01T07:18:33.178Z,26.61
2017-09-01T07:19:43.534Z,26.59
2017-09-01T07:20:53.872Z,26.67
2017-09-01T07:22:03.947Z,26.82
2017-09-01T07:23:14.292Z,26.9
2017-09-01T07:24:24.323Z,26.96
2017-09-01T07:25:34.354Z,27.12
2017-09-01T07:26:44.381Z,27.41
2017-09-01T07:27:54.106Z,27.59
2017-09-01T07:29:04.482Z,27.89
2017-09-01T07:30:14.855Z,28.09
2017-09-01T07:31:24.879Z,28.33
2017-09-01T07:32:34.920Z,28.65
2017-09-01T07:33:45.289Z,28.75
2017-09-01T07:34:55.643Z,28.82
2017-09-01T07:36:05.682Z,28.8
2017-09-01T07:37:15.694Z,28.79
2017-09-01T07:38:26.014Z,28.68
2017-09-01T07:39:36.420Z,28.67
2017-09-01T07:40:46.784Z,28.57
2017-09-01T07:41:57.141Z,28.46
2017-09-01T07:43:07.477Z,28.43
2017-09-01T07:44:17.819Z,28.57
2017-09-01T07:45:28.211Z,28.67
2017-09-01T07:46:38.548Z,28.88
2017-09-01T07:47:48.584Z,28.88
2017-09-01T07:48:58.925Z,28.75
2017-09-01T07:50:09.272Z,28.49
2017-09-01T07:51:19.359Z,28.46
2017-09-01T07:52:29.697Z,28.48
2017-09-01T07:53:40.094Z,28.45
2017-09-01T07:54:50.441Z,28.42
2017-09-01T07:56:00.802Z,28.35
2017-09-01T07:57:10.533Z,28.31
2017-09-01T07:58:20.584Z,28.3
2017-09-01T07:59:30.609Z,28.3
2017-09-01T08:00:40.647Z,28.28
2017-09-01T08:01:50.990Z,28.3
2017-09-01T08:03:01.389Z,28.35
2017-09-01T08:04:11.737Z,28.36
2017-09-01T08:05:21.771Z,28.39
2017-09-01T08:06:31.809Z,28.42
2017-09-01T08:07:42.154Z,28.41
2017-09-01T08:08:52.646Z,28.46
2017-09-01T08:10:02.662Z,28.33
2017-09-01T08:11:13.015Z,28.3
2017-09-01T08:12:23.050Z,28.28
2017-09-01T08:13:33.104Z,28.38
2017-09-01T08:14:43.185Z,28.6
2017-09-01T08:15:53.545Z,28.85
2017-09-01T08:17:03.569Z,28.98
2017-09-01T08:18:13.907Z,29.3
2017-09-01T08:19:23.931Z,29.42
2017-09-01T08:20:34.427Z,29.45
2017-09-01T08:21:44.545Z,29.47
2017-09-01T08:22:55.482Z,29.45
2017-09-01T08:24:05.828Z,29.39
2017-09-01T08:25:16.424Z,29.47
2017-09-01T08:26:26.768Z,29.48
2017-09-01T08:27:37.178Z,29.47
2017-09-01T08:28:47.535Z,29.55
2017-09-01T08:29:57.254Z,29.72
2017-09-01T08:31:07.638Z,29.77
2017-09-01T08:32:17.697Z,29.66
2017-09-01T08:33:27.765Z,29.4
2017-09-01T08:34:38.119Z,29.35
2017-09-01T08:35:48.150Z,29.13
2017-09-01T08:36:58.506Z,28.92
2017-09-01T08:38:08.864Z,28.82
2017-09-01T08:39:19.400Z,28.65
2017-09-01T08:40:29.758Z,28.64
2017-09-01T08:41:40.115Z,28.46
2017-09-01T08:42:50.464Z,28.17
2017-09-01T08:44:00.831Z,28.16
2017-09-01T08:45:10.862Z,28.23
2017-09-01T08:46:22.610Z,28.38
2017-09-01T08:47:32.948Z,28.45
2017-09-01T08:48:43.298Z,28.43
2017-09-01T08:49:53.643Z,28.46
2017-09-01T08:51:03.660Z,28.41
2017-09-01T08:52:14.004Z,28.43
2017-09-01T08:53:24.358Z,28.39
2017-09-01T08:54:35.589Z,28.46
2017-09-01T08:55:45.937Z,28.35
2017-09-01T08:56:56.299Z,28.48
2017-09-01T08:58:06.640Z,28.46
2017-09-01T08:59:16.724Z,28.55
2017-09-01T09:00:26.751Z,28.64
2017-09-01T09:01:36.788Z,28.85
2017-09-01T09:02:46.819Z,28.88
2017-09-01T09:03:57.166Z,29.01
2017-09-01T09:05:07.556Z,28.83
2017-09-01T09:06:17.905Z,28.73
2017-09-01T09:07:28.270Z,28.67
2017-09-01T09:08:38.291Z,28.72
2017-09-01T09:09:48.342Z,28.63
2017-09-01T09:10:58.681Z,28.6
2017-09-01T09:12:09.032Z,28.6
2017-09-01T09:13:19.398Z,28.73
2017-09-01T09:14:29.744Z,28.9
2017-09-01T09:15:39.798Z,29.13
2017-09-01T09:16:50.198Z,29.45
2017-09-01T09:18:00.234Z,29.7
2017-09-01T09:19:10.591Z,29.94
2017-09-01T09:20:20.954Z,30.03
2017-09-01T09:21:31.330Z,30.25
2017-09-01T09:22:41.671Z,30.49
2017-09-01T09:23:52.017Z,30.69
2017-09-01T09:25:02.371Z,30.79
2017-09-01T09:26:12.086Z,30.86
2017-09-01T09:27:22.108Z,30.97
2017-09-01T09:28:32.458Z,31.06
2017-09-01T09:29:42.185Z,31.23
2017-09-01T09:30:52.554Z,31.22
2017-09-01T09:32:02.913Z,31.31
2017-09-01T09:33:12.960Z,31.25
2017-09-01T09:34:23.068Z,31.33
2017-09-01T09:35:33.411Z,31.25
2017-09-01T09:36:43.774Z,31.23
2017-09-01T09:37:53.804Z,31.15
2017-09-01T09:39:04.134Z,31.1
2017-09-01T09:40:14.486Z,31.04
2017-09-01T09:41:24.850Z,31.07
2017-09-01T09:42:36.112Z,31.01
2017-09-01T09:43:46.455Z,31.06
2017-09-01T09:44:56.538Z,31.15
2017-09-01T09:46:06.908Z,31.12
2017-09-01T09:47:17.279Z,31
2017-09-01T09:48:27.627Z,30.94
2017-09-01T09:49:37.989Z,30.99
2017-09-01T09:50:48.401Z,31.06
2017-09-01T09:51:58.757Z,31.15
2017-09-01T09:53:09.098Z,31.33
2017-09-01T09:54:19.441Z,31.44
2017-09-01T09:55:29.474Z,31.8
2017-09-01T09:56:39.873Z,32.1
2017-09-01T09:57:50.227Z,32.13
2017-09-01T09:59:00.260Z,31.98
2017-09-01T10:00:10.605Z,31.94
2017-09-01T10:01:20.644Z,31.8
2017-09-01T10:02:30.727Z,31.63
2017-09-01T10:03:41.096Z,31.47
2017-09-01T10:04:51.475Z,31.45
2017-09-01T10:06:01.823Z,31.25
2017-09-01T10:07:12.211Z,31.28
2017-09-01T10:08:22.596Z,31.26
2017-09-01T10:09:32.952Z,31.19
2017-09-01T10:10:43.310Z,31.16
2017-09-01T10:11:53.362Z,31.08
2017-09-01T10:13:03.404Z,30.82
2017-09-01T10:14:13.475Z,30.7
2017-09-01T10:15:23.837Z,30.47
2017-09-01T10:16:34.189Z,30.18
2017-09-01T10:17:44.220Z,30.16
2017-09-01T10:18:54.258Z,30.31
2017-09-01T10:20:04.653Z,30.57
2017-09-01T10:21:15.031Z,30.67
2017-09-01T10:22:25.408Z,30.71
2017-09-01T10:23:35.749Z,30.84
2017-09-01T10:24:46.094Z,30.89
2017-09-01T10:25:56.505Z,30.88
2017-09-01T10:27:06.530Z,30.79
2017-09-01T10:28:16.564Z,30.73
2017-09-01T10:29:26.915Z,30.63
2017-09-01T10:30:37.265Z,30.6
2017-09-01T10:31:47.677Z,30.63
2017-09-01T10:32:58.024Z,30.52
2017-09-01T10:34:08.380Z,30.48
2017-09-01T10:35:18.431Z,30.49
2017-09-01T10:36:28.772Z,30.44
2017-09-01T10:37:39.171Z,30.31
2017-09-01T10:38:49.224Z,30.35
2017-09-01T10:39:59.557Z,30.1
2017-09-01T10:41:09.962Z,30.11
2017-09-01T10:42:20.319Z,30.06
2017-09-01T10:43:30.675Z,29.91
2017-09-01T10:44:41.069Z,29.77
2017-09-01T10:45:51.107Z,29.6
2017-09-01T10:47:01.144Z,29.65
2017-09-01T10:48:11.181Z,29.66
2017-09-01T10:49:21.278Z,29.51
2017-09-01T10:50:31.305Z,29.38
2017-09-01T10:51:41.651Z,29.36
2017-09-01T10:52:51.680Z,29.43
2017-09-01T10:54:02.045Z,29.45
2017-09-01T10:55:12.451Z,29.45
2017-09-01T10:56:22.489Z,29.3
2017-09-01T10:57:32.531Z,29.33
2017-09-01T10:58:42.923Z,29.47
2017-09-01T10:59:53.305Z,29.42
2017-09-01T11:01:03.640Z,29.45
2017-09-01T11:02:14.033Z,29.4
2017-09-01T11:03:24.070Z,29.42
2017-09-01T11:04:34.100Z,29.52
2017-09-01T11:05:44.124Z,29.65
2017-09-01T11:06:54.480Z,29.79
2017-09-01T11:08:04.515Z,29.88
2017-09-01T11:09:14.862Z,30.1
2017-09-01T11:10:25.362Z,30.21
2017-09-01T11:11:35.708Z,30.31
2017-09-01T11:12:45.789Z,30.48
2017-09-01T11:13:56.133Z,30.52
2017-09-01T11:15:06.178Z,30.59
2017-09-01T11:16:16.246Z,30.69
2017-09-01T11:17:26.605Z,30.7
2017-09-01T11:18:36.967Z,30.71
2017-09-01T11:19:47.310Z,30.78
2017-09-01T11:20:57.641Z,30.75
2017-09-01T11:22:09.535Z,30.71
2017-09-01T11:23:19.895Z,30.64
2017-09-01T11:24:30.396Z,30.56
2017-09-01T11:25:40.758Z,30.48
2017-09-01T11:26:51.102Z,30.32
2017-09-01T11:28:03.177Z,30.19
2017-09-01T11:29:16.400Z,30.04
2017-09-01T11:30:26.782Z,29.66
2017-09-01T11:31:37.132Z,29.43
2017-09-01T11:32:48.250Z,29.21
2017-09-01T11:33:58.661Z,28.94
2017-09-01T11:35:08.697Z,28.64
2017-09-01T11:36:19.035Z,28.46
2017-09-01T11:37:29.388Z,28.27
2017-09-01T11:38:39.731Z,28.08
2017-09-01T11:39:49.757Z,27.83
2017-09-01T11:41:00.111Z,27.53
2017-09-01T11:42:10.505Z,27.24
2017-09-01T11:43:20.849Z,26.94
2017-09-01T11:44:31.182Z,26.72
2017-09-01T11:45:41.225Z,26.44
2017-09-01T11:46:51.258Z,26.22
2017-09-01T11:48:01.613Z,26.03
2017-09-01T11:49:11.962Z,25.82
2017-09-01T11:50:22.337Z,25.75
2017-09-01T11:51:32.679Z,25.6
2017-09-01T11:52:43.030Z,25.41
2017-09-01T11:53:53.113Z,25.27
2017-09-01T11:55:03.157Z,25.26
2017-09-01T11:56:13.522Z,25.17
2017-09-01T11:57:23.547Z,25.02
2017-09-01T11:58:33.891Z,24.96
2017-09-01T11:59:43.972Z,24.87
2017-09-01T12:00:54.327Z,24.77
2017-09-01T12:02:04.364Z,24.74
2017-09-01T12:03:14.727Z,24.64
2017-09-01T12:04:24.763Z,24.45
2017-09-01T12:05:35.115Z,24.32
2017-09-01T12:06:45.456Z,24.22
2017-09-01T12:07:56.362Z,24.11
2017-09-01T12:09:06.393Z,23.93
2017-09-01T12:10:16.742Z,23.84
2017-09-01T12:11:27.098Z,23.75
2017-09-01T12:12:37.470Z,23.64
2017-09-01T12:13:47.871Z,23.52
2017-09-01T12:14:58.209Z,23.42
2017-09-01T12:16:08.569Z,23.29
2017-09-01T12:17:19.213Z,23.09
2017-09-01T12:18:29.560Z,23.04
2017-09-01T12:19:39.638Z,22.94
2017-09-01T12:20:49.665Z,22.92
2017-09-01T12:21:59.693Z,22.84
2017-09-01T12:23:10.050Z,22.71
2017-09-01T12:24:19.757Z,22.63
2017-09-01T12:25:29.843Z,22.52
2017-09-01T12:26:40.183Z,22.38
2017-09-01T12:27:50.524Z,22.24
2017-09-01T12:29:00.916Z,22.16
2017-09-01T12:30:11.252Z,22.08
2017-09-01T12:31:21.285Z,21.93
2017-09-01T12:32:31.642Z,21.92
2017-09-01T12:33:41.988Z,21.7
2017-09-01T12:34:54.388Z,21.68
2017-09-01T12:36:04.406Z,21.55
2017-09-01T12:37:14.802Z,21.56
2017-09-01T12:38:24.828Z,21.58
2017-09-01T12:39:34.857Z,21.55
2017-09-01T12:40:45.192Z,21.43
2017-09-01T12:41:55.549Z,21.45
2017-09-01T12:43:05.961Z,21.45
2017-09-01T12:44:16.336Z,21.4
2017-09-01T12:45:26.682Z,21.48
2017-09-01T12:46:37.035Z,21.37
2017-09-01T12:47:47.390Z,21.3
2017-09-01T12:48:57.796Z,21.37
2017-09-01T12:50:08.166Z,21.31
2017-09-01T12:51:18.533Z,21.25
2017-09-01T12:52:28.550Z,21.27
2017-09-01T12:53:38.568Z,21.34
2017-09-01T12:54:48.964Z,21.36
2017-09-01T12:55:58.983Z,21.38
2017-09-01T12:57:09.015Z,21.41
2017-09-01T12:58:18.738Z,21.46
2017-09-01T12:59:29.101Z,21.49
2017-09-01T13:00:39.493Z,21.59
2017-09-01T13:01:49.839Z,21.68
2017-09-01T13:03:00.198Z,21.96
2017-09-01T13:04:11.948Z,22.26
2017-09-01T13:05:24.857Z,22.57
2017-09-01T13:06:37.381Z,22.89
2017-09-01T13:07:47.404Z,23.48
2017-09-01T13:08:57.757Z,24.09
2017-09-01T13:10:07.792Z,24.59
2017-09-01T13:11:18.178Z,25
2017-09-01T13:12:35.155Z,25.22
2017-09-01T13:14:14.687Z,25.47
2017-09-01T13:15:25.050Z,25.63
2017-09-01T13:16:35.387Z,25.56
2017-09-01T13:17:45.745Z,25.51
2017-09-01T13:18:56.101Z,25.29
2017-09-01T13:20:06.477Z,25.15
2017-09-01T13:21:16.535Z,24.93
2017-09-01T13:22:26.958Z,24.69
2017-09-01T13:23:37.350Z,24.34
2017-09-01T13:24:47.844Z,24.14
2017-09-01T13:25:58.273Z,23.96
2017-09-01T13:27:08.354Z,23.87
2017-09-01T13:28:18.479Z,23.9
2017-09-01T13:29:28.856Z,23.74
2017-09-01T13:30:38.913Z,23.72
2017-09-01T13:31:49.292Z,23.63
2017-09-01T13:32:59.669Z,23.53
2017-09-01T13:34:09.761Z,23.53
2017-09-01T13:35:20.145Z,23.55
2017-09-01T13:36:30.506Z,23.45
2017-09-01T13:37:40.542Z,23.26
2017-09-01T13:38:52.959Z,23.19
2017-09-01T13:40:03.385Z,23.15
2017-09-01T13:41:13.424Z,23.09
2017-09-01T13:42:23.781Z,23.04
2017-09-01T13:43:33.239Z,22.99
2017-09-01T13:44:43.281Z,22.85
2017-09-01T13:45:53.668Z,22.88
2017-09-01T13:47:04.063Z,22.91
2017-09-01T13:48:14.103Z,22.85
2017-09-01T13:49:24.493Z,22.88
2017-09-01T13:50:34.219Z,22.97
2017-09-01T13:51:49.055Z,22.96
2017-09-01T13:53:01.394Z,23.07
2017-09-01T13:54:11.119Z,23.34
2017-09-01T13:55:21.164Z,23.64
2017-09-01T13:56:31.963Z,23.94
2017-09-01T13:57:42.373Z,24.3
2017-09-01T13:58:52.720Z,24.4
2017-09-01T14:00:02.752Z,24.45
2017-09-01T14:01:13.106Z,24.46
2017-09-01T14:02:25.526Z,24.44
2017-09-01T14:03:35.947Z,24.3
2017-09-01T14:04:45.974Z,24.19
2017-09-01T14:05:56.336Z,24.03
2017-09-01T14:07:06.374Z,24.11
2017-09-01T14:08:16.715Z,24.37
2017-09-01T14:09:27.122Z,24.48
2017-09-01T14:10:37.470Z,24.42
2017-09-01T14:11:47.831Z,24.33
2017-09-01T14:12:58.179Z,24.12
2017-09-01T14:14:09.078Z,24.03
2017-09-01T14:15:19.165Z,23.79
2017-09-01T14:16:29.949Z,23.74
2017-09-01T14:17:40.303Z,23.74
2017-09-01T14:18:50.341Z,23.62
2017-09-01T14:20:01.952Z,23.57
2017-09-01T14:21:12.027Z,23.55
2017-09-01T14:22:23.022Z,23.47
2017-09-01T14:23:33.380Z,23.44
2017-09-01T14:24:43.785Z,23.44
2017-09-01T14:25:53.834Z,23.26
2017-09-01T14:27:04.243Z,23.22
2017-09-01T14:28:14.335Z,23.15
2017-09-01T14:29:24.692Z,23.16
2017-09-01T14:30:34.410Z,23.07
2017-09-01T14:31:44.766Z,23.01
2017-09-01T14:32:55.805Z,23
2017-09-01T14:34:05.527Z,22.91
2017-09-01T14:35:15.552Z,22.99
2017-09-01T14:36:25.269Z,22.92
2017-09-01T14:37:35.636Z,22.84
2017-09-01T14:38:45.973Z,22.82
2017-09-01T14:39:56.008Z,22.75
2017-09-01T14:41:06.394Z,22.73
2017-09-01T14:42:16.726Z,22.71
2017-09-01T14:43:26.827Z,22.71
2017-09-01T14:44:36.859Z,22.69
2017-09-01T14:45:47.232Z,22.64
2017-09-01T14:46:59.638Z,22.7
2017-09-01T14:48:09.387Z,22.61
2017-09-01T14:49:19.793Z,22.63
2017-09-01T14:50:30.183Z,22.59
2017-09-01T14:51:39.607Z,22.59
2017-09-01T14:52:49.652Z,22.57
2017-09-01T14:54:00.015Z,22.46
2017-09-01T14:55:10.387Z,22.46
2017-09-01T14:56:20.739Z,22.42
2017-09-01T14:57:30.833Z,22.33
2017-09-01T14:58:41.190Z,22.26
2017-09-01T14:59:51.584Z,22.33
2017-09-01T15:01:01.945Z,22.29
2017-09-01T15:02:12.314Z,22.26
2017-09-01T15:03:23.919Z,22.26
2017-09-01T15:04:33.955Z,22.11
2017-09-01T15:05:46.062Z,21.94
2017-09-01T15:06:56.098Z,21.99
2017-09-01T15:08:06.457Z,21.96
2017-09-01T15:09:16.873Z,21.92
2017-09-01T15:10:27.238Z,21.94
2017-09-01T15:11:37.291Z,21.97
2017-09-01T15:12:47.640Z,22.02
2017-09-01T15:13:58.002Z,21.94
2017-09-01T15:15:08.394Z,21.92
2017-09-01T15:16:18.776Z,21.92
2017-09-01T15:17:28.840Z,21.8
2017-09-01T15:18:40.506Z,21.77
2017-09-01T15:19:55.674Z,21.7
2017-09-01T15:21:06.045Z,21.71
2017-09-01T15:22:16.402Z,21.7
2017-09-01T15:23:26.431Z,21.64
2017-09-01T15:24:36.181Z,21.58
2017-09-01T15:25:46.632Z,21.55
2017-09-01T15:26:57.073Z,21.61
2017-09-01T15:28:07.431Z,21.55
2017-09-01T15:29:17.914Z,21.51
2017-09-01T15:30:28.268Z,21.49
2017-09-01T15:31:38.306Z,21.4
2017-09-01T15:32:49.747Z,21.33
2017-09-01T15:34:00.075Z,21.25
2017-09-01T15:35:10.429Z,21.11
2017-09-01T15:36:20.475Z,20.96
2017-09-01T15:37:30.835Z,20.82
2017-09-01T15:38:41.219Z,20.9